Time;durP1;ratioP1;P1;durP2;ratioP2;P2;SDS_P1;SDS_P2;PMS_P1;PMS_P2;Temp;Humidity;BMP_temperature;BMP_pressure;BME280_temperature;BME280_humidity;BME280_pressure;Samples;Min_cycle;Max_cycle;Signal;HPM_P1;HPM_P2
2023/07/16 00:01:53;;;;;;;1.87;1.80;;;;;;;-145.94;58.38;75503.63;5133986;28;20216;-66
2023/07/16 00:04:19;;;;;;;2.53;2.30;;;;;;;-145.94;58.84;75507.72;5133809;28;20747;-66
2023/07/16 00:06:46;;;;;;;4.27;2.43;;;;;;;-145.94;59.21;75526.06;5133845;28;20188;-66
2023/07/16 00:09:12;;;;;;;5.60;3.00;;;;;;;-145.94;59.29;75534.22;5133782;28;20245;-66
2023/07/16 00:11:38;;;;;;;2.40;2.30;;;;;;;-145.94;59.71;75548.50;5133796;28;20208;-66
2023/07/16 00:14:05;;;;;;;3.37;2.37;;;;;;;-145.94;59.91;75556.63;5133766;28;20238;-66
2023/07/16 00:16:32;;;;;;;6.30;2.23;;;;;;;-145.94;60.26;75566.84;5133756;28;20701;-67
2023/07/16 00:18:58;;;;;;;2.97;2.87;;;;;;;-145.94;60.12;75568.88;5133751;28;20616;-66
2023/07/16 00:21:25;;;;;;;2.80;2.80;;;;;;;-145.94;60.45;75560.72;5133720;28;20201;-66
2023/07/16 00:23:51;;;;;;;3.30;3.00;;;;;;;-145.94;60.50;75550.53;5133592;28;20209;-66
2023/07/16 00:26:18;;;;;;;2.23;2.23;;;;;;;-145.94;60.78;75570.91;5133998;28;20188;-66
2023/07/16 00:28:44;;;;;;;2.70;2.70;;;;;;;-145.94;61.05;75589.25;5134218;28;20184;-66
2023/07/16 00:31:11;;;;;;;2.47;2.37;;;;;;;-145.94;61.24;75599.44;5115132;28;20198;-66
2023/07/16 00:33:37;;;;;;;2.23;2.23;;;;;;;-145.94;61.68;75623.91;5136563;27;20185;-66
2023/07/16 00:36:04;;;;;;;2.47;2.43;;;;;;;-145.94;61.88;75621.88;5137343;27;20189;-66
2023/07/16 00:38:31;;;;;;;2.30;2.10;;;;;;;-145.94;62.04;75636.16;5137575;27;20188;-67
2023/07/16 00:40:57;;;;;;;2.40;2.30;;;;;;;-145.94;62.32;75644.31;5137660;27;20180;-66
2023/07/16 00:43:24;;;;;;;3.30;2.53;;;;;;;-145.94;62.59;75650.41;5137022;27;20253;-67
2023/07/16 00:45:50;;;;;;;3.37;3.27;;;;;;;-145.94;62.74;75648.38;5137127;27;20189;-66
2023/07/16 00:48:18;;;;;;;4.03;3.77;;;;;;;-145.94;63.09;75654.50;5118835;27;20287;-66
2023/07/16 00:50:45;;;;;;;2.57;2.47;;;;;;;-145.94;63.47;75662.66;5137050;27;20192;-66
2023/07/16 00:53:12;;;;;;;8.77;2.67;;;;;;;-145.94;63.18;75654.50;5118570;27;20216;-66
2023/07/16 00:55:39;;;;;;;2.70;2.60;;;;;;;-145.94;63.42;75660.59;5137618;27;20172;-66
2023/07/16 00:58:07;;;;;;;2.47;2.33;;;;;;;-145.94;63.56;75664.69;5137162;27;20193;-66
2023/07/16 01:00:35;;;;;;;5.03;2.80;;;;;;;-145.94;63.65;75654.50;5137137;27;20192;-66
2023/07/16 01:03:04;;;;;;;2.47;2.27;;;;;;;-145.94;63.94;75656.53;5136989;27;20568;-67
2023/07/16 01:05:45;;;;;;;2.87;2.60;;;;;;;-145.94;64.08;75668.75;5118318;27;20209;-67
2023/07/16 01:08:14;;;;;;;5.53;2.97;;;;;;;-145.94;64.23;75678.97;5137052;27;20177;-67
2023/07/16 01:10:41;;;;;;;2.40;2.40;;;;;;;-145.94;64.51;75687.13;5136710;27;20200;-67
2023/07/16 01:13:08;;;;;;;2.70;2.60;;;;;;;-145.94;64.47;75683.03;5136816;27;20678;-67
2023/07/16 01:15:35;;;;;;;2.33;2.33;;;;;;;-145.94;64.37;75683.03;5137128;27;20584;-67
2023/07/16 01:18:05;;;;;;;2.80;2.60;;;;;;;-145.94;64.49;75691.19;5136830;27;20197;-67
2023/07/16 01:20:31;;;;;;;2.47;2.43;;;;;;;-145.94;64.53;75685.06;5136440;27;20196;-66
2023/07/16 01:23:13;;;;;;;2.90;2.53;;;;;;;-145.94;64.72;75689.16;5117939;27;20216;-66
2023/07/16 01:26:06;;;;;;;2.57;2.47;;;;;;;-145.94;65.02;75693.22;5136653;27;20193;-66
2023/07/16 01:29:01;;;;;;;5.20;2.70;;;;;;;-145.94;65.24;75693.22;5131855;27;20201;-66
2023/07/16 01:31:29;;;;;;;3.07;3.07;;;;;;;-145.94;65.43;75695.25;5099796;27;20220;-66
2023/07/16 01:33:56;;;;;;;3.77;2.83;;;;;;;-145.94;65.39;75699.34;5117844;27;20192;-66
2023/07/16 01:36:24;;;;;;;3.77;3.60;;;;;;;-145.94;66.15;75723.81;5136118;27;20351;-66
2023/07/16 01:38:51;;;;;;;3.03;2.90;;;;;;;-145.94;66.31;75715.66;5136376;27;20189;-66
2023/07/16 01:41:18;;;;;;;3.97;3.20;;;;;;;-145.94;66.28;75717.69;5135989;27;20189;-66
2023/07/16 01:43:45;;;;;;;3.13;3.03;;;;;;;-145.94;66.13;75713.63;5134999;27;20188;-66
2023/07/16 01:46:12;;;;;;;2.57;2.57;;;;;;;-145.94;66.18;75723.81;5117590;27;20191;-66
2023/07/16 01:48:38;;;;;;;3.27;2.90;;;;;;;-145.94;66.15;75729.91;5136203;27;20206;-66
2023/07/16 01:51:05;;;;;;;2.77;2.53;;;;;;;-145.94;66.19;75734.00;5117356;27;20196;-66
2023/07/16 01:53:31;;;;;;;2.77;2.67;;;;;;;-145.94;66.19;75738.06;5117218;27;20192;-66
2023/07/16 01:56:01;;;;;;;2.63;1.93;;;;;;;-145.94;66.04;75742.16;5117385;27;20207;-66
2023/07/16 01:58:27;;;;;;;2.77;2.53;;;;;;;-145.94;66.09;75756.41;5117302;27;20199;-66
2023/07/16 02:00:54;;;;;;;2.20;2.10;;;;;;;-145.94;65.94;75756.41;5117271;27;20249;-66
2023/07/16 02:03:20;;;;;;;2.50;2.50;;;;;;;-145.94;65.96;75756.41;5135498;27;20209;-66
2023/07/16 02:05:48;;;;;;;2.20;2.20;;;;;;;-145.94;66.07;75758.47;5116998;27;20276;-66
2023/07/16 02:08:14;;;;;;;1.90;1.67;;;;;;;-145.94;65.71;75758.47;5117097;27;20199;-66
2023/07/16 02:10:40;;;;;;;3.87;2.20;;;;;;;-145.94;65.53;75758.47;5135501;27;20189;-66
2023/07/16 02:13:08;;;;;;;2.77;2.57;;;;;;;-145.94;65.70;75758.47;5116879;27;20261;-66
2023/07/16 02:15:34;;;;;;;2.20;2.13;;;;;;;-145.94;65.99;75766.63;5117016;27;20188;-66
2023/07/16 02:18:04;;;;;;;2.50;2.40;;;;;;;-145.94;65.82;75758.47;5116941;27;20196;-66
2023/07/16 02:20:33;;;;;;;2.63;2.53;;;;;;;-145.94;66.05;75772.72;5117165;27;20283;-66
2023/07/16 02:23:00;;;;;;;2.27;2.23;;;;;;;-145.94;65.96;75774.78;5135171;27;20246;-66
2023/07/16 02:25:27;;;;;;;2.10;2.10;;;;;;;-145.94;65.87;75776.81;5135062;27;20204;-66
2023/07/16 02:27:53;;;;;;;6.83;1.90;;;;;;;-145.94;65.70;75770.69;5135170;27;20658;-66
2023/07/16 02:30:20;;;;;;;4.33;2.00;;;;;;;-145.94;65.68;75778.84;5134904;27;20718;-66
2023/07/16 02:32:46;;;;;;;4.63;1.83;;;;;;;-145.94;65.83;75782.94;5135551;27;20722;-66
2023/07/16 02:35:13;;;;;;;4.47;2.50;;;;;;;-145.94;65.72;75784.97;5134969;27;20177;-66
2023/07/16 02:37:39;;;;;;;2.37;2.30;;;;;;;-145.94;65.95;75791.09;5116541;27;20196;-66
2023/07/16 02:40:06;;;;;;;3.87;3.07;;;;;;;-145.94;65.66;75789.03;5134946;27;20184;-66
2023/07/16 02:42:33;;;;;;;2.60;2.37;;;;;;;-145.94;65.83;75797.19;5116432;27;20220;-66
2023/07/16 02:44:59;;;;;;;2.80;2.70;;;;;;;-145.94;65.74;75801.28;5134839;27;20212;-66
2023/07/16 02:47:26;;;;;;;2.23;2.03;;;;;;;-145.94;65.83;75803.31;5135090;27;20192;-66
2023/07/16 02:49:52;;;;;;;4.83;2.40;;;;;;;-145.94;65.61;75807.38;5116445;27;20626;-66
2023/07/16 02:52:19;;;;;;;2.67;2.50;;;;;;;-145.94;65.80;75811.47;5134631;27;20212;-66
2023/07/16 02:54:45;;;;;;;2.30;2.30;;;;;;;-145.94;65.61;75811.47;5135066;27;20198;-66
2023/07/16 02:57:12;;;;;;;2.47;2.37;;;;;;;-145.94;65.38;75811.47;5135062;27;20187;-66
2023/07/16 02:59:38;;;;;;;2.53;2.40;;;;;;;-145.94;65.06;75799.22;5116209;27;20669;-66
2023/07/16 03:02:05;;;;;;;2.57;2.57;;;;;;;-145.94;65.27;75811.47;5116110;27;20619;-66
2023/07/16 03:04:32;;;;;;;2.60;2.43;;;;;;;-145.94;65.36;75809.44;5116067;27;20291;-66
2023/07/16 03:06:58;;;;;;;3.80;2.67;;;;;;;-145.94;65.27;75801.28;5116044;27;20193;-66
2023/07/16 03:09:25;;;;;;;3.33;2.87;;;;;;;-145.94;65.18;75801.28;5116015;27;20195;-66
2023/07/16 03:11:51;;;;;;;2.23;2.23;;;;;;;-145.94;65.17;75803.31;5134323;27;20219;-67
2023/07/16 03:14:18;;;;;;;2.60;2.40;;;;;;;-145.94;65.35;75809.44;5134706;27;20181;-66
2023/07/16 03:16:44;;;;;;;2.60;2.50;;;;;;;-145.94;65.12;75807.38;5115755;27;20223;-66
2023/07/16 03:19:11;;;;;;;2.97;2.60;;;;;;;-145.94;64.87;75807.38;5134607;27;20690;-66
2023/07/16 03:21:37;;;;;;;2.60;2.43;;;;;;;-145.94;64.95;75797.19;5134233;27;20196;-67
2023/07/16 03:24:04;;;;;;;3.17;2.67;;;;;;;-145.94;64.73;75801.28;5115842;28;20209;-66
2023/07/16 03:26:31;;;;;;;2.70;2.47;;;;;;;-145.94;64.45;75795.16;5134250;27;20263;-66
2023/07/16 03:28:57;;;;;;;4.17;2.53;;;;;;;-145.94;64.09;75809.44;5115887;28;20188;-66
2023/07/16 03:31:24;;;;;;;2.37;2.27;;;;;;;-145.94;64.41;75807.38;5115674;28;20246;-66
2023/07/16 03:33:51;;;;;;;2.87;2.67;;;;;;;-145.94;63.88;75811.47;5115794;28;20184;-66
2023/07/16 03:36:18;;;;;;;2.97;2.87;;;;;;;-145.94;63.85;75811.47;5134171;28;20181;-66
2023/07/16 03:38:45;;;;;;;2.40;2.20;;;;;;;-145.94;63.47;75821.66;5115787;28;20195;-66
2023/07/16 03:41:12;;;;;;;2.97;2.87;;;;;;;-145.94;63.20;75829.81;5115654;28;20193;-66
2023/07/16 03:43:38;;;;;;;7.33;2.10;;;;;;;-145.94;62.51;75827.78;5134033;28;20188;-66
2023/07/16 03:46:15;;;;;;;6.77;2.23;;;;;;;-145.94;62.34;75829.81;5115680;28;20252;-66
2023/07/16 03:48:42;;;;;;;2.60;2.40;;;;;;;-145.94;62.04;75831.84;5115635;28;20261;-66
2023/07/16 03:51:09;;;;;;;5.27;2.40;;;;;;;-145.94;61.88;75846.13;5098626;28;20291;-67
2023/07/16 03:53:35;;;;;;;4.30;1.90;;;;;;;-145.94;61.06;75840.00;5134262;28;20192;-66
2023/07/16 03:56:01;;;;;;;4.70;1.80;;;;;;;-145.94;60.89;75844.09;5134231;28;20184;-66
2023/07/16 03:58:29;;;;;;;2.27;2.27;;;;;;;-145.94;60.14;75852.25;5134268;28;20191;-66
2023/07/16 04:00:55;;;;;;;3.37;2.37;;;;;;;-145.94;59.76;75864.47;5134248;28;20558;-66
2023/07/16 04:03:22;;;;;;;4.90;2.47;;;;;;;-145.94;59.02;75866.50;5115453;28;20265;-67
2023/07/16 04:05:49;;;;;;;1.93;1.83;;;;;;;-145.94;58.70;75864.47;5133834;28;20228;-66
2023/07/16 04:08:16;;;;;;;6.33;2.47;;;;;;;-145.94;58.43;75866.50;5117782;27;20195;-66
2023/07/16 04:10:42;;;;;;;12.77;2.87;;;;;;;-145.94;58.23;75872.63;5137863;27;20189;-66
2023/07/16 04:13:09;;;;;;;2.67;2.53;;;;;;;-145.94;58.11;75880.78;5137730;27;20208;-66
2023/07/16 04:15:35;;;;;;;5.60;2.43;;;;;;;-145.94;57.88;75880.78;5137795;27;20263;-66
2023/07/16 04:18:03;;;;;;;2.43;2.30;;;;;;;-145.94;57.45;75882.81;5137675;27;20188;-66
2023/07/16 04:20:30;;;;;;;10.73;2.40;;;;;;;-145.94;57.37;75886.91;5137654;27;20216;-66
2023/07/16 04:22:57;;;;;;;2.87;2.50;;;;;;;-145.94;57.15;75893.00;5137695;27;20614;-66
2023/07/16 04:25:23;;;;;;;8.47;3.47;;;;;;;-145.94;56.91;75893.00;5138034;27;20208;-66
2023/07/16 04:27:50;;;;;;;2.50;2.10;;;;;;;-145.94;56.89;75899.13;5137523;27;20230;-66
2023/07/16 04:30:16;;;;;;;6.23;2.40;;;;;;;-145.94;56.60;75899.13;5137534;27;20202;-66
2023/07/16 04:32:43;;;;;;;3.07;2.07;;;;;;;-145.94;56.70;75903.22;5137423;27;20204;-66
2023/07/16 04:35:09;;;;;;;2.63;2.50;;;;;;;-145.94;56.68;75897.09;5137882;27;20212;-66
2023/07/16 04:37:36;;;;;;;1.93;1.83;;;;;;;-145.94;56.57;75909.31;5137323;27;20180;-66
2023/07/16 04:40:04;;;;;;;2.73;2.53;;;;;;;-145.94;56.04;75899.13;5137589;27;20193;-66
2023/07/16 04:42:30;;;;;;;2.93;2.83;;;;;;;-145.94;56.18;75903.22;5137190;27;20253;-67
2023/07/16 04:44:57;;;;;;;3.93;2.53;;;;;;;-145.94;55.17;75903.22;5137121;27;20257;-66
2023/07/16 04:47:23;;;;;;;5.10;2.67;;;;;;;-145.94;54.94;75897.09;5137479;27;20183;-66
2023/07/16 04:49:50;;;;;;;7.97;3.03;;;;;;;-145.94;54.61;75901.16;5137409;27;20611;-66
2023/07/16 04:52:16;;;;;;;7.50;3.00;;;;;;;-145.94;54.89;75905.25;5137311;27;20223;-66
2023/07/16 04:54:43;;;;;;;8.00;3.43;;;;;;;-145.94;54.54;75907.28;5137008;27;20188;-66
2023/07/16 04:57:09;;;;;;;6.00;3.37;;;;;;;-145.94;54.41;75905.25;5137262;27;20588;-66
2023/07/16 04:59:36;;;;;;;2.43;2.33;;;;;;;-145.94;54.25;75901.16;5137167;27;20191;-67
2023/07/16 05:02:05;;;;;;;7.43;3.03;;;;;;;-145.94;54.70;75909.31;5136796;27;20213;-66
2023/07/16 05:04:33;;;;;;;12.37;2.60;;;;;;;-145.94;54.85;75911.38;5136717;27;20188;-66
2023/07/16 05:07:03;;;;;;;2.60;2.60;;;;;;;-145.94;54.81;75907.28;5137073;27;20196;-66
2023/07/16 05:09:30;;;;;;;2.73;2.40;;;;;;;-145.94;54.85;75911.38;5137321;27;20598;-66
2023/07/16 05:11:56;;;;;;;10.47;2.33;;;;;;;-145.94;54.61;75915.44;5136596;27;20208;-66
2023/07/16 05:14:26;;;;;;;3.37;3.17;;;;;;;-145.94;54.21;75913.41;5137217;27;20523;-66
2023/07/16 05:16:53;;;;;;;3.07;2.73;;;;;;;-145.94;54.23;75911.38;5137194;27;20642;-66
2023/07/16 05:19:20;;;;;;;18.33;2.60;;;;;;;-145.94;53.28;75913.41;5136333;27;20185;-66
2023/07/16 05:21:46;;;;;;;3.50;3.30;;;;;;;-145.94;52.13;75919.50;5136719;27;20261;-67
2023/07/16 05:24:13;;;;;;;3.50;3.20;;;;;;;-145.94;52.75;75915.44;5136435;27;20184;-66
2023/07/16 05:26:40;;;;;;;5.27;4.70;;;;;;;-145.94;52.64;75905.25;5136345;27;20253;-66
2023/07/16 05:29:06;;;;;;;27.20;4.60;;;;;;;-145.94;52.81;75905.25;5136678;27;20535;-66
2023/07/16 05:31:32;;;;;;;5.33;3.70;;;;;;;-145.94;53.37;75903.22;5136263;27;20690;-66
2023/07/16 05:33:59;;;;;;;3.43;3.23;;;;;;;-145.94;53.12;75907.28;5136486;27;20187;-66
2023/07/16 05:36:25;;;;;;;4.00;2.70;;;;;;;-145.94;53.45;75911.38;5136194;27;20180;-66
2023/07/16 05:38:52;;;;;;;2.60;2.40;;;;;;;-145.94;53.34;75903.22;5136136;27;20666;-65
2023/07/16 05:41:18;;;;;;;10.40;2.50;;;;;;;-145.94;53.54;75913.41;5136606;27;20203;-66
2023/07/16 05:43:47;;;;;;;5.20;2.50;;;;;;;-145.94;53.55;75911.38;5136011;27;20192;-66
2023/07/16 05:46:14;;;;;;;2.70;2.50;;;;;;;-145.94;53.62;75901.16;5136248;27;20204;-66
2023/07/16 05:48:41;;;;;;;3.40;2.50;;;;;;;-145.94;53.04;75903.22;5136224;27;20199;-66
2023/07/16 05:51:07;;;;;;;4.27;3.80;;;;;;;-145.94;52.57;75895.06;5136392;27;20594;-68
2023/07/16 05:53:34;;;;;;;4.40;2.93;;;;;;;-145.94;52.57;75903.22;5136145;27;20184;-66
2023/07/16 05:56:00;;;;;;;6.80;3.00;;;;;;;-145.94;52.74;75897.09;5135789;27;20576;-66
2023/07/16 05:58:27;;;;;;;3.13;2.47;;;;;;;-145.94;53.00;75893.00;5136094;27;20179;-67
2023/07/16 06:00:53;;;;;;;2.80;2.63;;;;;;;-145.94;51.77;75909.31;5135652;27;20715;-66
2023/07/16 06:03:20;;;;;;;3.07;2.97;;;;;;;-145.94;51.71;75899.13;5135916;27;20738;-66
2023/07/16 06:05:47;;;;;;;4.73;3.20;;;;;;;-145.94;51.82;75890.97;5135901;27;20696;-67
2023/07/16 06:08:13;;;;;;;3.30;2.90;;;;;;;-145.94;51.00;75901.16;5136117;27;20580;-67
2023/07/16 06:10:40;;;;;;;4.67;3.57;;;;;;;-145.94;51.30;75893.00;5135540;27;20233;-66
2023/07/16 06:13:06;;;;;;;3.13;2.83;;;;;;;-145.94;50.91;75880.78;5135412;27;20204;-66
2023/07/16 06:15:33;;;;;;;3.07;2.93;;;;;;;-145.94;51.44;75878.75;5135730;27;20181;-66
2023/07/16 06:17:59;;;;;;;7.17;3.33;;;;;;;-145.94;50.34;75880.78;5135956;27;20180;-66
2023/07/16 06:20:25;;;;;;;3.70;3.27;;;;;;;-145.94;50.94;75890.97;5135296;27;20184;-66
2023/07/16 06:22:52;;;;;;;3.40;3.23;;;;;;;-145.94;50.73;75880.78;5135272;27;20702;-66
2023/07/16 06:25:18;;;;;;;3.90;3.70;;;;;;;-145.94;50.62;75878.75;5135698;27;20233;-67
2023/07/16 06:27:45;;;;;;;11.00;4.63;;;;;;;-145.94;49.68;75872.63;5116988;27;20192;-66
2023/07/16 06:30:11;;;;;;;4.03;3.83;;;;;;;-145.94;50.57;75876.69;5134467;27;20204;-66
2023/07/16 06:32:38;;;;;;;4.57;4.27;;;;;;;-145.94;50.84;75872.63;5135036;27;20693;-66
2023/07/16 06:35:05;;;;;;;6.43;3.17;;;;;;;-145.94;50.73;75864.47;5135248;27;20181;-67
2023/07/16 06:37:31;;;;;;;6.33;4.03;;;;;;;-145.94;50.45;75856.31;5135311;27;20188;-66
2023/07/16 06:39:58;;;;;;;4.77;3.70;;;;;;;-145.94;50.50;75844.09;5135206;27;20184;-66
2023/07/16 06:42:24;;;;;;;6.37;4.10;;;;;;;-145.94;49.80;75837.97;5134827;27;20217;-66
2023/07/16 06:44:56;;;;;;;3.63;3.53;;;;;;;-145.94;49.57;75840.00;5116405;27;20191;-66
2023/07/16 06:47:22;;;;;;;8.03;4.13;;;;;;;-145.94;49.44;75858.34;5134802;27;20181;-66
2023/07/16 06:49:49;;;;;;;7.27;3.70;;;;;;;-145.94;49.27;75868.56;5135301;27;20184;-67
2023/07/16 06:52:20;;;;;;;4.13;3.80;;;;;;;-145.94;49.34;75862.44;5135222;27;20604;-66
2023/07/16 06:54:46;;;;;;;4.77;3.97;;;;;;;-145.94;48.48;75872.63;5135281;27;20181;-67
2023/07/16 06:57:13;;;;;;;10.73;4.60;;;;;;;-145.94;49.50;75874.66;5134644;27;20195;-66
2023/07/16 06:59:40;;;;;;;4.67;3.33;;;;;;;-145.94;49.75;75864.47;5134943;27;20184;-66
2023/07/16 07:02:06;;;;;;;8.47;4.00;;;;;;;-145.94;49.65;75860.41;5134568;27;20229;-66
2023/07/16 07:04:33;;;;;;;3.90;3.60;;;;;;;-145.94;48.86;75852.25;5134601;27;20229;-66
2023/07/16 07:06:59;;;;;;;10.27;4.60;;;;;;;-145.94;48.34;75850.19;5134748;27;20192;-66
2023/07/16 07:09:26;;;;;;;5.80;4.30;;;;;;;-145.94;48.97;75844.09;5134418;27;20715;-67
2023/07/16 07:11:52;;;;;;;4.33;4.03;;;;;;;-145.94;48.55;75844.09;5134959;27;20214;-66
2023/07/16 07:14:18;;;;;;;5.20;4.20;;;;;;;-145.94;48.14;75837.97;5134413;27;20233;-66
2023/07/16 07:16:45;;;;;;;5.47;3.67;;;;;;;-145.94;48.30;75837.97;5134398;27;20253;-66
2023/07/16 07:19:11;;;;;;;4.77;4.33;;;;;;;-145.94;48.28;75837.97;5134660;27;20189;-66
2023/07/16 07:21:38;;;;;;;5.93;4.60;;;;;;;-145.94;48.04;75860.41;5134304;27;20200;-66
2023/07/16 07:24:04;;;;;;;10.33;4.20;;;;;;;-145.94;48.15;75860.41;5134335;27;20196;-67
2023/07/16 07:26:31;;;;;;;5.53;3.77;;;;;;;-145.94;47.52;75856.31;5134482;27;20212;-67
2023/07/16 07:28:57;;;;;;;10.63;4.60;;;;;;;-145.94;48.95;75850.19;5134837;27;20193;-66
2023/07/16 07:31:24;;;;;;;9.53;4.63;;;;;;;-145.94;48.91;75837.97;5134507;28;20299;-66
2023/07/16 07:33:50;;;;;;;5.07;3.93;;;;;;;-145.94;48.11;75829.81;5134544;28;20188;-66
2023/07/16 07:36:17;;;;;;;6.07;4.00;;;;;;;-145.94;48.14;75833.88;5134240;28;20182;-68
2023/07/16 07:38:44;;;;;;;3.97;3.77;;;;;;;-145.94;47.63;75829.81;5134747;28;20212;-67
2023/07/16 07:41:10;;;;;;;10.00;4.10;;;;;;;-145.94;46.88;75829.81;5116260;27;20719;-67
2023/07/16 07:43:37;;;;;;;4.83;4.37;;;;;;;-145.94;48.06;75831.84;5137411;27;20241;-66
2023/07/16 07:46:03;;;;;;;3.83;3.63;;;;;;;-145.94;47.27;75844.09;5138284;27;20273;-67
2023/07/16 07:48:29;;;;;;;4.13;3.87;;;;;;;-145.94;47.59;75833.88;5138285;27;20535;-67
2023/07/16 07:50:56;;;;;;;13.90;4.43;;;;;;;-145.94;48.32;75825.75;5138528;27;20712;-67
2023/07/16 07:53:23;;;;;;;4.40;4.00;;;;;;;-145.94;47.16;75837.97;5138109;27;20212;-67
2023/07/16 07:55:49;;;;;;;5.30;4.30;;;;;;;-145.94;47.17;75837.97;5138447;27;20188;-66
2023/07/16 07:58:15;;;;;;;4.23;3.93;;;;;;;-145.94;46.86;75835.94;5138663;27;20184;-68
2023/07/16 08:00:42;;;;;;;4.60;3.57;;;;;;;-145.94;46.77;75866.50;5138349;27;20197;-67
2023/07/16 08:03:08;;;;;;;7.17;4.50;;;;;;;-145.94;47.17;75868.56;5138000;27;20201;-67
2023/07/16 08:05:35;;;;;;;3.73;3.53;;;;;;;-145.94;46.89;75854.28;5137935;27;20222;-68
2023/07/16 08:08:01;;;;;;;6.20;3.90;;;;;;;-145.94;46.84;75848.16;5138513;27;20177;-67
2023/07/16 08:10:29;;;;;;;6.00;4.10;;;;;;;-145.94;47.04;75837.97;5137864;27;20181;-66
2023/07/16 08:12:55;;;;;;;3.83;3.60;;;;;;;-145.94;47.82;75813.50;5138604;27;20539;-66
2023/07/16 08:15:22;;;;;;;4.07;3.67;;;;;;;-145.94;47.04;75784.97;5137744;27;20719;-66
2023/07/16 08:17:48;;;;;;;4.27;3.97;;;;;;;-145.94;46.83;75780.88;5137735;27;20188;-67
2023/07/16 08:20:15;;;;;;;4.83;4.00;;;;;;;-145.94;46.59;75774.78;5137687;27;20267;-66
2023/07/16 08:22:42;;;;;;;5.40;4.10;;;;;;;-145.94;46.32;75760.50;5137856;27;20694;-66
2023/07/16 08:25:08;;;;;;;4.03;3.73;;;;;;;-145.94;45.27;75758.47;5138049;27;20251;-67
2023/07/16 08:27:35;;;;;;;3.57;3.43;;;;;;;-145.94;45.13;75768.66;5137406;27;20211;-66
2023/07/16 08:30:02;;;;;;;3.33;3.23;;;;;;;-145.94;45.18;75756.41;5137753;27;20196;-67
2023/07/16 08:32:28;;;;;;;3.97;3.67;;;;;;;-145.94;45.23;75758.47;5137940;27;20205;-67
2023/07/16 08:34:55;;;;;;;4.77;3.40;;;;;;;-145.94;44.71;75754.38;5137895;27;20222;-67
2023/07/16 08:37:21;;;;;;;3.87;3.73;;;;;;;-145.94;45.20;75752.34;5138223;27;20248;-66
2023/07/16 08:39:52;;;;;;;7.70;3.97;;;;;;;-145.94;44.72;75748.28;5137543;27;20233;-67
2023/07/16 08:42:18;;;;;;;12.43;3.93;;;;;;;-145.94;44.89;75756.41;5137617;27;20208;-67
2023/07/16 08:44:46;;;;;;;3.90;3.73;;;;;;;-145.94;45.52;75736.03;5138048;27;20184;-67
2023/07/16 08:47:12;;;;;;;3.77;3.67;;;;;;;-145.94;46.03;75729.91;5137355;27;20205;-67
2023/07/16 08:49:40;;;;;;;4.30;3.40;;;;;;;-145.94;44.53;75727.88;5137364;27;20275;-68
2023/07/16 08:52:07;;;;;;;4.63;3.83;;;;;;;-145.94;44.15;75746.22;5137864;27;20204;-67
2023/07/16 08:54:34;;;;;;;5.77;3.50;;;;;;;-145.94;43.75;75760.50;5136877;27;20237;-67
2023/07/16 08:57:01;;;;;;;6.10;3.80;;;;;;;-145.94;45.18;75729.91;5137361;27;20612;-67
2023/07/16 08:59:27;;;;;;;3.77;3.57;;;;;;;-145.94;44.98;75703.41;5119200;27;20226;-68
2023/07/16 09:01:55;;;;;;;9.67;3.83;;;;;;;-145.94;44.20;75693.22;5136967;27;20219;-67
2023/07/16 09:04:22;;;;;;;4.20;3.83;;;;;;;-145.94;43.73;75678.97;5137453;27;20257;-67
2023/07/16 09:06:48;;;;;;;4.23;3.87;;;;;;;-145.94;43.98;75662.66;5136858;27;20712;-67
2023/07/16 09:09:24;;;;;;;4.47;3.30;;;;;;;-145.94;42.82;75691.19;5137145;27;20190;-67
2023/07/16 09:11:51;;;;;;;3.90;3.60;;;;;;;-145.94;43.21;75689.16;5137268;27;20257;-67
2023/07/16 09:14:18;;;;;;;3.63;3.43;;;;;;;-145.94;43.80;75697.31;5119140;27;20246;-67
2023/07/16 09:16:52;;;;;;;5.37;4.17;;;;;;;-145.94;43.44;75701.38;5137441;27;20173;-67
2023/07/16 09:19:19;;;;;;;3.57;3.37;;;;;;;-145.94;43.75;75695.25;5118447;27;20169;-67
2023/07/16 09:21:52;;;;;;;4.40;3.50;;;;;;;-145.94;42.82;75703.41;5136816;27;20240;-67
2023/07/16 09:24:23;;;;;;;3.80;2.80;;;;;;;-145.94;43.01;75713.63;5136714;27;20658;-67
2023/07/16 09:26:55;;;;;;;7.67;3.90;;;;;;;-145.94;44.18;75697.31;5118088;27;20216;-67
2023/07/16 09:29:22;;;;;;;4.57;3.77;;;;;;;-145.94;42.70;75717.69;5136323;27;20608;-68
2023/07/16 09:31:53;;;;;;;4.10;3.20;;;;;;;-145.94;42.28;75731.97;5136789;27;20200;-68
2023/07/16 09:34:20;;;;;;;5.90;3.30;;;;;;;-145.94;42.71;75727.88;5137023;27;20187;-67
2023/07/16 09:36:50;;;;;;;5.70;3.00;;;;;;;-145.94;43.06;75727.88;5136516;27;20650;-67
2023/07/16 09:39:18;;;;;;;4.30;3.90;;;;;;;-145.94;43.13;75736.03;5136324;27;20234;-66
2023/07/16 09:41:47;;;;;;;3.47;3.37;;;;;;;-145.94;43.11;75727.88;5136263;27;20200;-67
2023/07/16 09:44:14;;;;;;;3.40;3.30;;;;;;;-145.94;43.02;75713.63;5136234;27;20188;-68
2023/07/16 09:46:42;;;;;;;6.43;3.50;;;;;;;-145.94;43.24;75711.56;5136026;27;20253;-67
2023/07/16 09:49:08;;;;;;;3.10;2.90;;;;;;;-145.94;42.81;75713.63;5136001;27;20293;-67
2023/07/16 09:51:36;;;;;;;4.30;3.77;;;;;;;-145.94;42.46;75711.56;5136016;27;20212;-66
2023/07/16 09:54:04;;;;;;;7.73;3.50;;;;;;;-145.94;42.48;75713.63;5136322;27;20576;-67
2023/07/16 09:56:43;;;;;;;4.00;3.27;;;;;;;-145.94;42.34;75717.69;5136217;27;20643;-67
2023/07/16 09:59:15;;;;;;;3.23;2.97;;;;;;;-145.94;42.23;75723.81;5136364;27;20173;-67
2023/07/16 10:01:42;;;;;;;6.90;3.20;;;;;;;-145.94;42.43;75721.75;5135869;27;20200;-67
2023/07/16 10:04:18;;;;;;;3.50;3.20;;;;;;;-145.94;42.43;75721.75;5136327;27;20233;-67
2023/07/16 10:07:05;;;;;;;9.07;2.90;;;;;;;-145.94;42.92;75725.84;5135223;27;20192;-67
2023/07/16 10:09:35;;;;;;;5.13;3.47;;;;;;;-145.94;43.07;75717.69;5136034;27;20199;-67
2023/07/16 10:12:17;;;;;;;13.33;2.93;;;;;;;-145.94;42.91;75723.81;5135969;27;20212;-64
2023/07/16 10:14:52;;;;;;;4.73;3.80;;;;;;;-145.94;42.14;75734.00;5135761;27;20630;-65
2023/07/16 10:17:23;;;;;;;5.07;3.00;;;;;;;-145.94;42.32;75734.00;5135557;27;20233;-66
2023/07/16 10:19:50;;;;;;;3.97;3.70;;;;;;;-145.94;43.35;75740.13;5135900;27;20503;-65
2023/07/16 10:22:19;;;;;;;4.13;3.60;;;;;;;-145.94;42.60;75729.91;5135900;27;20208;-66
2023/07/16 10:24:53;;;;;;;5.60;3.90;;;;;;;-145.94;43.32;75721.75;5135624;27;20169;-65
2023/07/16 10:27:33;;;;;;;4.50;3.03;;;;;;;-145.94;42.13;75719.72;5135599;27;20196;-66
2023/07/16 10:30:04;;;;;;;3.50;3.27;;;;;;;-145.94;42.94;75717.69;5116587;27;20225;-67
2023/07/16 10:32:32;;;;;;;3.53;3.23;;;;;;;-145.94;42.12;75717.69;5135391;27;20207;-67
2023/07/16 10:34:59;;;;;;;3.67;3.30;;;;;;;-145.94;42.17;75709.53;5135141;27;20641;-67
2023/07/16 10:37:26;;;;;;;3.70;3.43;;;;;;;-145.94;42.23;75721.75;5116633;27;20723;-67
2023/07/16 10:39:55;;;;;;;3.70;3.50;;;;;;;-145.94;42.70;75713.63;5116666;27;20246;-67
2023/07/16 10:42:23;;;;;;;3.20;3.10;;;;;;;-145.94;42.61;75707.50;5134953;27;20204;-67
2023/07/16 10:44:54;;;;;;;2.63;2.63;;;;;;;-145.94;42.85;75703.41;5134956;27;20181;-67
2023/07/16 10:47:31;;;;;;;3.73;2.57;;;;;;;-145.94;41.83;75695.25;5116420;27;20249;-67
2023/07/16 10:49:57;;;;;;;9.40;2.80;;;;;;;-145.94;42.22;75683.03;5135111;27;20222;-67
2023/07/16 10:52:24;;;;;;;3.23;3.00;;;;;;;-145.94;42.44;75666.72;5135041;27;20604;-67
2023/07/16 10:54:54;;;;;;;3.20;2.97;;;;;;;-145.94;41.52;75681.00;5135361;27;20650;-65
2023/07/16 10:57:22;;;;;;;4.20;2.63;;;;;;;-145.94;41.82;75685.06;5134999;27;20215;-65
2023/07/16 10:59:51;;;;;;;11.83;2.80;;;;;;;-145.94;41.54;75687.13;5134576;27;20193;-66
2023/07/16 11:02:18;;;;;;;9.40;3.57;;;;;;;-145.94;42.60;75689.16;5134720;27;20253;-64
2023/07/16 11:04:45;;;;;;;4.33;3.30;;;;;;;-145.94;42.11;75699.34;5134613;27;20184;-64
2023/07/16 11:07:14;;;;;;;3.83;3.60;;;;;;;-145.94;42.06;75699.34;5134420;27;20197;-64
2023/07/16 11:09:49;;;;;;;3.30;3.03;;;;;;;-145.94;41.74;75695.25;5134585;27;20609;-64
2023/07/16 11:12:20;;;;;;;3.03;2.83;;;;;;;-145.94;41.80;75689.16;5134557;27;20268;-64
2023/07/16 11:14:52;;;;;;;7.30;3.30;;;;;;;-145.94;41.99;75685.06;5134655;27;20173;-64
2023/07/16 11:17:20;;;;;;;5.43;3.07;;;;;;;-145.94;42.52;75687.13;5134625;27;20173;-64
2023/07/16 11:19:48;;;;;;;3.43;3.20;;;;;;;-145.94;42.21;75685.06;5134254;27;20212;-64